Time,TemperatureF,DewpointF,PressureIn,WindDirection,WindDirectionDegrees,WindSpeedMPH,WindSpeedGustMPH,Humidity,HourlyPrecipIn,Conditions,Clouds,dailyrainin,SolarRadiationWatts/m^2,SoftwareType,DateUTC
2013-02-21 00:03:00,40.2,38.0,30.05,SE,143,0.0,-999.0,90,-99.99,,,0.00,0,weatherlink.com 1.10,2013-02-21 08:03:00,
2013-02-21 00:18:00,40.1,38.0,30.05,SE,143,0.0,-999.0,91,-99.99,,,0.00,0,weatherlink.com 1.10,2013-02-21 08:18:00,
2013-02-21 00:33:00,39.8,37.0,30.05,SE,143,0.0,-999.0,90,-99.99,,,0.00,0,weatherlink.com 1.10,2013-02-21 08:33:00,
2013-02-21 00:48:00,39.5,37.0,30.05,SE,143,0.0,-999.0,91,-99.99,,,0.00,0,weatherlink.com 1.10,2013-02-21 08:48:00,
2013-02-21 01:03:00,39.0,36.0,30.05,SE,143,0.0,-999.0,90,-99.99,,,0.00,0,weatherlink.com 1.10,2013-02-21 09:03:00,
2013-02-21 01:33:00,38.7,36.0,30.05,SE,143,0.0,-999.0,91,-99.99,,,0.00,0,weatherlink.com 1.10,2013-02-21 09:33:00,
2013-02-21 01:48:00,38.8,37.0,30.05,SE,143,0.0,-999.0,92,-99.99,,,0.00,0,weatherlink.com 1.10,2013-02-21 09:48:00,
2013-02-21 02:03:00,38.7,37.0,30.05,SE,143,0.0,-999.0,92,-99.99,,,0.00,0,weatherlink.com 1.10,2013-02-21 10:03:00,
2013-02-21 02:18:00,38.9,37.0,30.05,SE,143,0.0,-999.0,92,-99.99,,,0.00,0,weatherlink.com 1.10,2013-02-21 10:18:00,
2013-02-21 02:33:00,39.1,37.0,30.04,SE,143,0.0,-999.0,93,-99.99,,,0.00,0,weatherlink.com 1.10,2013-02-21 10:33:00,
2013-02-21 02:48:00,39.5,38.0,30.04,SE,143,0.0,-999.0,93,-99.99,,,0.00,0,weatherlink.com 1.10,2013-02-21 10:48:00,
2013-02-21 03:03:00,39.5,37.0,30.04,SE,143,0.0,-999.0,92,-99.99,,,0.00,0,weatherlink.com 1.10,2013-02-21 11:03:00,
2013-02-21 03:18:00,39.5,38.0,30.04,SE,143,0.0,-999.0,93,-99.99,,,0.00,0,weatherlink.com 1.10,2013-02-21 11:18:00,
2013-02-21 03:33:00,40.0,38.0,30.04,SE,143,0.0,-999.0,93,-99.99,,,0.00,0,weatherlink.com 1.10,2013-02-21 11:33:00,
2013-02-21 03:48:00,40.4,39.0,30.03,SE,143,0.0,-999.0,93,-99.99,,,0.00,0,weatherlink.com 1.10,2013-02-21 11:48:00,
2013-02-21 04:03:00,40.6,39.0,30.03,SE,143,0.0,-999.0,93,-99.99,,,0.00,0,weatherlink.com 1.10,2013-02-21 12:03:00,
2013-02-21 04:18:00,40.8,39.0,30.04,SE,143,0.0,-999.0,93,-99.99,,,0.00,0,weatherlink.com 1.10,2013-02-21 12:18:00,
2013-02-21 04:33:00,41.0,39.0,30.05,SE,143,0.0,-999.0,94,-99.99,,,0.00,0,weatherlink.com 1.10,2013-02-21 12:33:00,
2013-02-21 04:48:00,40.9,39.0,30.05,SE,143,0.0,-999.0,94,-99.99,,,0.00,0,weatherlink.com 1.10,2013-02-21 12:48:00,
2013-02-21 05:03:00,40.7,39.0,30.05,SE,143,0.0,-999.0,94,-99.99,,,0.00,0,weatherlink.com 1.10,2013-02-21 13:03:00,
2013-02-21 05:18:00,40.7,39.0,30.05,SE,143,0.0,-999.0,94,-99.99,,,0.00,0,weatherlink.com 1.10,2013-02-21 13:18:00,
2013-02-21 05:33:00,40.7,39.0,30.05,SE,143,0.0,-999.0,94,-99.99,,,0.00,0,weatherlink.com 1.10,2013-02-21 13:33:00,
2013-02-21 05:48:00,40.7,39.0,30.04,SE,143,0.0,-999.0,94,-99.99,,,0.00,0,weatherlink.com 1.10,2013-02-21 13:48:00,
2013-02-21 06:03:00,40.5,39.0,30.05,SE,143,0.0,-999.0,94,-99.99,,,0.00,0,weatherlink.com 1.10,2013-02-21 14:03:00,
2013-02-21 06:18:00,40.0,38.0,30.05,SE,143,0.0,-999.0,93,-99.99,,,0.00,0,weatherlink.com 1.10,2013-02-21 14:18:00,
2013-02-21 06:33:00,39.6,38.0,30.06,SE,143,0.0,-999.0,94,-99.99,,,0.00,7,weatherlink.com 1.10,2013-02-21 14:33:00,
2013-02-21 06:48:00,39.4,38.0,30.06,SE,143,0.0,-999.0,94,-99.99,,,0.00,23,weatherlink.com 1.10,2013-02-21 14:48:00,
2013-02-21 07:03:00,39.5,38.0,30.07,SE,143,0.0,-999.0,94,-99.99,,,0.00,49,weatherlink.com 1.10,2013-02-21 15:03:00,
2013-02-21 07:19:00,39.8,38.0,30.07,SE,143,0.0,-999.0,94,-99.99,,,0.00,76,weatherlink.com 1.10,2013-02-21 15:19:00,
2013-02-21 07:33:00,40.6,39.0,30.07,SE,143,0.0,-999.0,94,-99.99,,,0.00,107,weatherlink.com 1.10,2013-02-21 15:33:00,
2013-02-21 07:48:00,41.7,40.0,30.07,SE,143,0.0,-999.0,95,-99.99,,,0.00,227,weatherlink.com 1.10,2013-02-21 15:48:00,
2013-02-21 08:03:00,43.0,42.0,30.07,SE,143,0.0,-999.0,95,-99.99,,,0.00,146,weatherlink.com 1.10,2013-02-21 16:03:00,
2013-02-21 08:19:00,44.0,43.0,30.08,SE,143,0.0,-999.0,95,-99.99,,,0.00,163,weatherlink.com 1.10,2013-02-21 16:19:00,
2013-02-21 08:34:00,45.8,45.0,30.07,East,88,1.0,-999.0,95,-99.99,,,0.00,413,weatherlink.com 1.10,2013-02-21 16:34:00,
2013-02-21 08:49:00,49.7,48.0,30.07,SE,141,7.0,-999.0,93,-99.99,,,0.00,482,weatherlink.com 1.10,2013-02-21 16:49:00,
2013-02-21 09:04:00,52.5,48.0,30.06,NE,47,6.0,-999.0,84,-99.99,,,0.00,257,weatherlink.com 1.10,2013-02-21 17:04:00,
2013-02-21 09:19:00,53.6,46.0,30.05,SE,130,6.0,-999.0,76,-99.99,,,0.00,322,weatherlink.com 1.10,2013-02-21 17:19:00,
2013-02-21 09:34:00,54.8,46.0,30.06,ESE,103,2.0,-999.0,72,-99.99,,,0.00,315,weatherlink.com 1.10,2013-02-21 17:34:00,
2013-02-21 09:49:00,54.9,45.0,30.06,SSE,167,3.0,-999.0,70,-99.99,,,0.00,294,weatherlink.com 1.10,2013-02-21 17:49:00,
2013-02-21 10:04:00,54.7,45.0,30.06,South,169,3.0,-999.0,71,-99.99,,,0.00,260,weatherlink.com 1.10,2013-02-21 18:04:00,
2013-02-21 10:19:00,54.8,45.0,30.08,SW,233,4.0,-999.0,70,-99.99,,,0.00,248,weatherlink.com 1.10,2013-02-21 18:19:00,
2013-02-21 10:34:00,55.1,45.0,30.07,SSE,154,0.0,-999.0,70,-99.99,,,0.00,364,weatherlink.com 1.10,2013-02-21 18:34:00,
2013-02-21 10:49:00,55.6,45.0,30.07,South,176,0.0,-999.0,68,-99.99,,,0.00,946,weatherlink.com 1.10,2013-02-21 18:49:00,
2013-02-21 11:04:00,57.0,45.0,30.06,South,182,3.0,-999.0,64,-99.99,,,0.00,960,weatherlink.com 1.10,2013-02-21 19:04:00,
2013-02-21 11:19:00,57.6,43.0,30.05,SE,143,0.0,-999.0,58,-99.99,,,0.00,835,weatherlink.com 1.10,2013-02-21 19:19:00,
2013-02-21 11:34:00,58.9,42.0,30.04,East,86,0.0,-999.0,53,-99.99,,,0.00,831,weatherlink.com 1.10,2013-02-21 19:34:00,
2013-02-21 11:49:00,59.0,41.0,30.02,East,97,0.0,-999.0,52,-99.99,,,0.00,835,weatherlink.com 1.10,2013-02-21 19:49:00,
2013-02-21 12:05:00,59.9,42.0,30.02,SW,236,5.0,-999.0,51,-99.99,,,0.00,225,weatherlink.com 1.10,2013-02-21 20:05:00,
2013-02-21 12:19:00,59.9,44.0,30.01,SSW,206,8.0,-999.0,57,-99.99,,,0.00,884,weatherlink.com 1.10,2013-02-21 20:19:00,
2013-02-21 12:35:00,59.6,45.0,30.00,WSW,243,6.0,-999.0,59,-99.99,,,0.00,958,weatherlink.com 1.10,2013-02-21 20:35:00,
2013-02-21 12:49:00,59.4,46.0,30.00,SW,233,7.0,-999.0,61,-99.99,,,0.00,295,weatherlink.com 1.10,2013-02-21 20:49:00,
2013-02-21 13:04:00,58.8,45.0,30.00,SSE,168,3.0,-999.0,61,-99.99,,,0.00,221,weatherlink.com 1.10,2013-02-21 21:04:00,
2013-02-21 13:19:00,58.1,45.0,30.00,WSW,247,6.0,-999.0,61,-99.99,,,0.00,142,weatherlink.com 1.10,2013-02-21 21:19:00,
2013-02-21 13:35:00,56.9,44.0,30.00,SW,235,6.0,-999.0,63,-99.99,,,0.00,104,weatherlink.com 1.10,2013-02-21 21:35:00,
2013-02-21 13:49:00,56.1,43.0,30.00,SSW,210,1.0,-999.0,63,-99.99,,,0.00,62,weatherlink.com 1.10,2013-02-21 21:49:00,
2013-02-21 14:05:00,55.4,46.0,30.01,SE,139,4.0,-999.0,70,-99.99,,,0.01,100,weatherlink.com 1.10,2013-02-21 22:05:00,
2013-02-21 14:20:00,53.5,47.0,30.02,ESE,105,2.0,-999.0,79,-99.99,,,0.02,53,weatherlink.com 1.10,2013-02-21 22:20:00,
2013-02-21 14:35:00,52.3,47.0,30.02,East,91,0.0,-999.0,81,-99.99,,,0.03,49,weatherlink.com 1.10,2013-02-21 22:35:00,
2013-02-21 14:50:00,51.9,47.0,30.01,SSE,162,1.0,-999.0,83,-99.99,,,0.06,100,weatherlink.com 1.10,2013-02-21 22:50:00,
2013-02-21 15:05:00,51.5,46.0,30.02,South,170,0.0,-999.0,82,-99.99,,,0.06,128,weatherlink.com 1.10,2013-02-21 23:05:00,
2013-02-21 15:20:00,52.0,47.0,30.01,SSE,158,0.0,-999.0,83,-99.99,,,0.06,401,weatherlink.com 1.10,2013-02-21 23:20:00,
2013-02-21 15:35:00,52.5,47.0,30.00,East,94,0.0,-999.0,80,-99.99,,,0.06,359,weatherlink.com 1.10,2013-02-21 23:35:00,
2013-02-21 15:50:00,53.9,48.0,30.00,East,81,1.0,-999.0,80,-99.99,,,0.06,323,weatherlink.com 1.10,2013-02-21 23:50:00,
2013-02-21 16:05:00,54.7,48.0,30.00,WSW,238,0.0,-999.0,78,-99.99,,,0.06,279,weatherlink.com 1.10,2013-02-22 00:05:00,
2013-02-21 16:20:00,55.1,47.0,30.00,West,264,0.0,-999.0,75,-99.99,,,0.06,213,weatherlink.com 1.10,2013-02-22 00:20:00,
2013-02-21 16:35:00,55.6,47.0,30.01,WSW,252,3.0,-999.0,72,-99.99,,,0.06,153,weatherlink.com 1.10,2013-02-22 00:35:00,
2013-02-21 16:50:00,55.6,45.0,30.00,WSW,252,0.0,-999.0,68,-99.99,,,0.06,97,weatherlink.com 1.10,2013-02-22 00:50:00,
2013-02-21 17:05:00,55.7,45.0,30.01,WSW,247,0.0,-999.0,67,-99.99,,,0.06,49,weatherlink.com 1.10,2013-02-22 01:05:00,
2013-02-21 17:20:00,55.5,45.0,30.02,WSW,247,0.0,-999.0,68,-99.99,,,0.06,18,weatherlink.com 1.10,2013-02-22 01:20:00,
2013-02-21 17:35:00,54.1,46.0,30.02,WSW,244,0.0,-999.0,73,-99.99,,,0.06,7,weatherlink.com 1.10,2013-02-22 01:35:00,
2013-02-21 17:50:00,52.0,45.0,30.04,WSW,244,0.0,-999.0,77,-99.99,,,0.06,0,weatherlink.com 1.10,2013-02-22 01:50:00,
2013-02-21 18:05:00,50.5,45.0,30.04,WSW,244,0.0,-999.0,80,-99.99,,,0.06,0,weatherlink.com 1.10,2013-02-22 02:05:00,
2013-02-21 18:20:00,49.6,44.0,30.05,WSW,243,0.0,-999.0,81,-99.99,,,0.06,0,weatherlink.com 1.10,2013-02-22 02:20:00,
2013-02-21 18:35:00,48.4,44.0,30.06,WSW,243,0.0,-999.0,83,-99.99,,,0.06,0,weatherlink.com 1.10,2013-02-22 02:35:00,
2013-02-21 18:50:00,47.0,42.0,30.07,WSW,244,0.0,-999.0,84,-99.99,,,0.06,0,weatherlink.com 1.10,2013-02-22 02:50:00,
2013-02-21 19:05:00,46.2,42.0,30.07,WSW,243,0.0,-999.0,85,-99.99,,,0.06,0,weatherlink.com 1.10,2013-02-22 03:05:00,
2013-02-21 19:20:00,45.5,41.0,30.08,WSW,243,0.0,-999.0,85,-99.99,,,0.06,0,weatherlink.com 1.10,2013-02-22 03:20:00,
2013-02-21 19:35:00,44.6,41.0,30.09,WSW,243,0.0,-999.0,86,-99.99,,,0.06,0,weatherlink.com 1.10,2013-02-22 03:35:00,
2013-02-21 19:50:00,44.1,41.0,30.09,WSW,243,0.0,-999.0,87,-99.99,,,0.06,0,weatherlink.com 1.10,2013-02-22 03:50:00,
2013-02-21 20:05:00,43.4,40.0,30.11,WSW,243,0.0,-999.0,88,-99.99,,,0.06,0,weatherlink.com 1.10,2013-02-22 04:05:00,
2013-02-21 20:20:00,42.9,40.0,30.11,SE,144,0.0,-999.0,89,-99.99,,,0.06,0,weatherlink.com 1.10,2013-02-22 04:20:00,
2013-02-21 20:50:00,41.8,39.0,30.12,SE,143,0.0,-999.0,89,-99.99,,,0.06,0,weatherlink.com 1.10,2013-02-22 04:50:00,
2013-02-21 21:05:00,41.4,39.0,30.12,SE,143,0.0,-999.0,90,-99.99,,,0.06,0,weatherlink.com 1.10,2013-02-22 05:05:00,
2013-02-21 21:20:00,40.8,38.0,30.12,SE,143,0.0,-999.0,90,-99.99,,,0.06,0,weatherlink.com 1.10,2013-02-22 05:20:00,
2013-02-21 21:35:00,40.5,38.0,30.13,SE,143,0.0,-999.0,91,-99.99,,,0.06,0,weatherlink.com 1.10,2013-02-22 05:35:00,
2013-02-21 21:50:00,39.8,37.0,30.12,SE,143,0.0,-999.0,91,-99.99,,,0.06,0,weatherlink.com 1.10,2013-02-22 05:50:00,
2013-02-21 22:05:00,39.5,37.0,30.12,SE,143,0.0,-999.0,91,-99.99,,,0.06,0,weatherlink.com 1.10,2013-02-22 06:05:00,
2013-02-21 22:20:00,38.8,36.0,30.12,SE,143,0.0,-999.0,91,-99.99,,,0.06,0,weatherlink.com 1.10,2013-02-22 06:20:00,
2013-02-21 22:35:00,38.8,37.0,30.12,SE,143,0.0,-999.0,92,-99.99,,,0.06,0,weatherlink.com 1.10,2013-02-22 06:35:00,
2013-02-21 22:50:00,38.7,37.0,30.13,SE,143,0.0,-999.0,92,-99.99,,,0.06,0,weatherlink.com 1.10,2013-02-22 06:50:00,
2013-02-21 23:05:00,38.5,36.0,30.13,SE,143,0.0,-999.0,92,-99.99,,,0.06,0,weatherlink.com 1.10,2013-02-22 07:05:00,
2013-02-21 23:20:00,37.9,36.0,30.13,SE,143,0.0,-999.0,92,-99.99,,,0.06,0,weatherlink.com 1.10,2013-02-22 07:20:00,
2013-02-21 23:35:00,38.2,36.0,30.13,SE,143,0.0,-999.0,93,-99.99,,,0.06,0,weatherlink.com 1.10,2013-02-22 07:35:00,
2013-02-21 23:50:00,38.3,37.0,30.13,SE,143,0.0,-999.0,93,-99.99,,,0.06,0,weatherlink.com 1.10,2013-02-22 07:50:00,